Time;durP1;ratioP1;P1;durP2;ratioP2;P2;SDS_P1;SDS_P2;PMS_P1;PMS_P2;Temp;Humidity;BMP_temperature;BMP_pressure;BME280_temperature;BME280_humidity;BME280_pressure;Samples;Min_cycle;Max_cycle;Signal;HPM_P1;HPM_P2
2022/06/04 00:00:49;;;;;;;;;;;;;;;;;;338953;159;856074;-57
2022/06/04 00:01:51;;;;;;;;;;;;;;;;;;339356;158;855952;-57
2022/06/04 00:02:52;;;;;;;;;;;;;;;;;;338194;159;856275;-59
2022/06/04 00:03:54;;;;;;;;;;;;;;;;;;340032;159;856699;-58
2022/06/04 00:04:55;;;;;;;;;;;;;;;;;;338630;159;855783;-57
2022/06/04 00:05:56;;;;;;;;;;;;;;;;;;340026;158;856088;-57
2022/06/04 00:06:57;;;;;;;;;;;;;;;;;;338393;159;855729;-57
2022/06/04 00:07:59;;;;;;;;;;;;;;;;;;339573;159;855885;-58
2022/06/04 00:09:00;;;;;;;;;;;;;;;;;;338899;158;855759;-57
2022/06/04 00:15:30;;;;;;;;;;;;;;;;;;338342;159;855860;-57
2022/06/04 00:16:31;;;;;;;;;;;;;;;;;;339728;159;855721;-57
2022/06/04 00:17:33;;;;;;;;;;;;;;;;;;340212;158;855791;-57
2022/06/04 00:18:34;;;;;;;;;;;;;;;;;;339130;159;857623;-58
2022/06/04 00:19:35;;;;;;;;;;;;;;;;;;339575;159;855867;-57
2022/06/04 00:20:37;;;;;;;;;;;;;;;;;;339278;158;856108;-57
2022/06/04 00:21:38;;;;;;;;;;;;;;;;;;340057;159;855872;-58
2022/06/04 00:22:39;;;;;;;;;;;;;;;;;;339490;158;856080;-58
2022/06/04 00:23:41;;;;;;;;;;;;;;;;;;339715;158;855966;-58
2022/06/04 00:24:42;;;;;;;;;;;;;;;;;;338882;158;856064;-58
2022/06/04 00:25:43;;;;;;;;;;;;;;;;;;339496;158;856832;-57
2022/06/04 00:26:45;;;;;;;;;;;;;;;;;;339640;159;857288;-57
2022/06/04 00:27:46;;;;;;;;;;;;;;;;;;341829;148;855474;-57
2022/06/04 00:28:47;;;;;;;;;;;;;;;;;;341286;153;857150;-57
2022/06/04 00:29:49;;;;;;;;;;;;;;;;;;342491;155;855908;-57
2022/06/04 00:30:50;;;;;;;;;;;;;;;;;;340807;155;857303;-57
2022/06/04 00:31:52;;;;;;;;;;;;;;;;;;351985;151;855999;-58
2022/06/04 00:32:53;;;;;;;;;;;;;;;;;;351710;151;855892;-57
2022/06/04 00:33:54;;;;;;;;;;;;;;;;;;352669;152;855741;-57
2022/06/04 00:34:55;;;;;;;;;;;;;;;;;;350811;152;856223;-56
2022/06/04 00:35:57;;;;;;;;;;;;;;;;;;351800;151;855771;-56
2022/06/04 00:36:58;;;;;;;;;;;;;;;;;;352492;152;855051;-57
2022/06/04 00:38:00;;;;;;;;;;;;;;;;;;353951;152;855292;-57
2022/06/04 00:39:01;;;;;;;;;;;;;;;;;;350672;152;855212;-57
2022/06/04 00:40:02;;;;;;;;;;;;;;;;;;352832;151;855214;-57
2022/06/04 00:41:04;;;;;;;;;;;;;;;;;;352163;151;854980;-57
2022/06/04 00:42:05;;;;;;;;;;;;;;;;;;351782;151;855837;-57
2022/06/04 00:43:07;;;;;;;;;;;;;;;;;;352359;151;855822;-56
2022/06/04 00:44:09;;;;;;;;;;;;;;;;;;348472;153;855507;-57
2022/06/04 00:45:11;;;;;;;;;;;;;;;;;;345146;154;857362;-57
2022/06/04 00:46:12;;;;;;;;;;;;;;;;;;346103;155;855852;-56
2022/06/04 00:47:14;;;;;;;;;;;;;;;;;;344705;155;854916;-57
2022/06/04 00:48:16;;;;;;;;;;;;;;;;;;343662;155;855832;-57
2022/06/04 00:49:21;;;;;;;;;;;;;;;;;;344079;155;855871;-57
2022/06/04 00:50:22;;;;;;;;;;;;;;;;;;344740;154;856448;-57
2022/06/04 00:51:23;;;;;;;;;;;;;;;;;;343151;155;855760;-57
2022/06/04 00:52:24;;;;;;;;;;;;;;;;;;346213;154;856050;-57
2022/06/04 00:53:26;;;;;;;;;;;;;;;;;;343526;155;857467;-57
2022/06/04 00:54:27;;;;;;;;;;;;;;;;;;347577;154;856745;-57
2022/06/04 00:55:28;;;;;;;;;;;;;;;;;;345050;155;857557;-57
2022/06/04 00:56:30;;;;;;;;;;;;;;;;;;342809;154;856426;-57
2022/06/04 00:57:31;;;;;;;;;;;;;;;;;;344068;154;856316;-57
2022/06/04 00:58:32;;;;;;;;;;;;;;;;;;345814;155;855755;-57
2022/06/04 00:59:34;;;;;;;;;;;;;;;;;;347148;154;856376;-57
2022/06/04 01:00:35;;;;;;;;;;;;;;;;;;343665;155;855822;-57
2022/06/04 01:01:36;;;;;;;;;;;;;;;;;;344641;154;856389;-57
2022/06/04 01:02:38;;;;;;;;;;;;;;;;;;346416;154;855911;-58
2022/06/04 01:03:39;;;;;;;;;;;;;;;;;;345884;155;856190;-57
2022/06/04 01:04:50;;;;;;;;;;;;;;;;;;344858;152;855849;-58
2022/06/04 01:05:51;;;;;;;;;;;;;;;;;;346334;154;855959;-58
2022/06/04 01:06:52;;;;;;;;;;;;;;;;;;344960;154;856120;-58
2022/06/04 01:07:54;;;;;;;;;;;;;;;;;;343862;155;855743;-58
2022/06/04 01:08:55;;;;;;;;;;;;;;;;;;343149;155;856243;-58
2022/06/04 01:09:56;;;;;;;;;;;;;;;;;;336679;157;855745;-58
2022/06/04 01:10:58;;;;;;;;;;;;;;;;;;341861;155;857911;-57
2022/06/04 01:12:11;;;;;;;;;;;;;;;;;;341708;155;855836;-58
2022/06/04 01:13:13;;;;;;;;;;;;;;;;;;342996;156;857471;-58
2022/06/04 01:14:14;;;;;;;;;;;;;;;;;;339857;156;857284;-57
2022/06/04 01:15:16;;;;;;;;;;;;;;;;;;339920;157;856071;-58
2022/06/04 01:16:17;;;;;;;;;;;;;;;;;;339741;157;855879;-57
2022/06/04 01:17:18;;;;;;;;;;;;;;;;;;339424;157;856205;-57
2022/06/04 01:18:20;;;;;;;;;;;;;;;;;;339608;156;857624;-59
2022/06/04 01:19:21;;;;;;;;;;;;;;;;;;337273;158;855874;-57
2022/06/04 01:20:22;;;;;;;;;;;;;;;;;;344518;154;855774;-57
2022/06/04 01:21:24;;;;;;;;;;;;;;;;;;339671;155;856373;-59
2022/06/04 01:22:25;;;;;;;;;;;;;;;;;;338992;156;856120;-57
2022/06/04 01:23:27;;;;;;;;;;;;;;;;;;341553;155;855659;-57
2022/06/04 01:24:28;;;;;;;;;;;;;;;;;;345002;154;855868;-57
2022/06/04 01:25:29;;;;;;;;;;;;;;;;;;344646;154;855875;-57
2022/06/04 01:26:31;;;;;;;;;;;;;;;;;;346028;153;856087;-57
2022/06/04 01:27:33;;;;;;;;;;;;;;;;;;345036;153;855830;-57
2022/06/04 01:28:34;;;;;;;;;;;;;;;;;;346221;154;855959;-57
2022/06/04 01:29:35;;;;;;;;;;;;;;;;;;345458;153;856322;-58
2022/06/04 01:30:37;;;;;;;;;;;;;;;;;;345796;153;855839;-57
2022/06/04 01:31:38;;;;;;;;;;;;;;;;;;347643;154;856223;-56
2022/06/04 01:32:40;;;;;;;;;;;;;;;;;;346224;153;855862;-57
2022/06/04 01:33:41;;;;;;;;;;;;;;;;;;346791;153;856843;-57
2022/06/04 01:34:42;;;;;;;;;;;;;;;;;;344316;154;858124;-57
2022/06/04 01:35:44;;;;;;;;;;;;;;;;;;346933;153;856120;-57
2022/06/04 01:36:46;;;;;;;;;;;;;;;;;;345802;154;857716;-58
2022/06/04 01:37:47;;;;;;;;;;;;;;;;;;345977;153;855289;-58
2022/06/04 01:38:48;;;;;;;;;;;;;;;;;;343014;154;855918;-57
2022/06/04 01:41:10;;;;;;;;;;;;;;;;;;344513;153;855875;-58
2022/06/04 01:42:11;;;;;;;;;;;;;;;;;;336657;157;855800;-57
2022/06/04 01:43:13;;;;;;;;;;;;;;;;;;339773;156;856661;-58
2022/06/04 01:44:14;;;;;;;;;;;;;;;;;;339417;157;856478;-57
2022/06/04 01:45:15;;;;;;;;;;;;;;;;;;339509;156;855973;-58
2022/06/04 01:46:17;;;;;;;;;;;;;;;;;;339659;156;856410;-58
2022/06/04 01:47:18;;;;;;;;;;;;;;;;;;340890;156;857024;-58
2022/06/04 01:48:19;;;;;;;;;;;;;;;;;;340467;157;855814;-58
2022/06/04 01:49:21;;;;;;;;;;;;;;;;;;338728;156;856023;-58
2022/06/04 01:50:22;;;;;;;;;;;;;;;;;;339745;156;855125;-57
2022/06/04 01:51:23;;;;;;;;;;;;;;;;;;339501;157;856042;-57
2022/06/04 01:52:25;;;;;;;;;;;;;;;;;;341071;157;855849;-57
2022/06/04 01:53:26;;;;;;;;;;;;;;;;;;341166;157;855803;-57
2022/06/04 01:54:27;;;;;;;;;;;;;;;;;;340951;157;855886;-57
2022/06/04 01:55:28;;;;;;;;;;;;;;;;;;340445;157;857828;-57
2022/06/04 01:56:30;;;;;;;;;;;;;;;;;;341046;156;855845;-56
2022/06/04 01:57:31;;;;;;;;;;;;;;;;;;340966;156;858195;-57
2022/06/04 01:58:33;;;;;;;;;;;;;;;;;;340244;157;855748;-57
2022/06/04 01:59:34;;;;;;;;;;;;;;;;;;339454;157;857228;-57
2022/06/04 02:00:36;;;;;;;;;;;;;;;;;;340985;156;855846;-57
2022/06/04 02:01:37;;;;;;;;;;;;;;;;;;339828;156;856283;-57
2022/06/04 02:02:38;;;;;;;;;;;;;;;;;;341448;156;855755;-58
2022/06/04 02:03:40;;;;;;;;;;;;;;;;;;340529;156;856817;-57
2022/06/04 02:04:41;;;;;;;;;;;;;;;;;;340053;156;855984;-58
2022/06/04 02:05:43;;;;;;;;;;;;;;;;;;341476;156;856830;-58
2022/06/04 02:06:44;;;;;;;;;;;;;;;;;;340430;156;856036;-57
2022/06/04 02:07:45;;;;;;;;;;;;;;;;;;338871;156;857666;-57
2022/06/04 02:08:47;;;;;;;;;;;;;;;;;;339324;156;856438;-57
2022/06/04 02:09:48;;;;;;;;;;;;;;;;;;339917;156;857785;-57
2022/06/04 02:10:49;;;;;;;;;;;;;;;;;;339207;157;855938;-57
2022/06/04 02:11:51;;;;;;;;;;;;;;;;;;340467;156;857706;-57
2022/06/04 02:12:52;;;;;;;;;;;;;;;;;;339045;156;855789;-57
2022/06/04 02:13:54;;;;;;;;;;;;;;;;;;340517;156;857177;-57
2022/06/04 02:14:55;;;;;;;;;;;;;;;;;;339845;157;855806;-57
2022/06/04 02:15:56;;;;;;;;;;;;;;;;;;340432;157;855858;-57
2022/06/04 02:16:58;;;;;;;;;;;;;;;;;;338959;157;855771;-57
2022/06/04 02:17:59;;;;;;;;;;;;;;;;;;340902;157;857127;-57
2022/06/04 02:19:00;;;;;;;;;;;;;;;;;;341529;157;855921;-56
2022/06/04 02:20:02;;;;;;;;;;;;;;;;;;340300;156;856398;-57
2022/06/04 02:21:03;;;;;;;;;;;;;;;;;;338045;156;855807;-57
2022/06/04 02:22:05;;;;;;;;;;;;;;;;;;341324;156;856021;-58
2022/06/04 02:23:06;;;;;;;;;;;;;;;;;;339070;156;855738;-58
2022/06/04 02:24:07;;;;;;;;;;;;;;;;;;342664;153;856105;-58
2022/06/04 02:25:09;;;;;;;;;;;;;;;;;;340016;156;855772;-58
2022/06/04 02:26:10;;;;;;;;;;;;;;;;;;341618;156;856852;-59
2022/06/04 02:27:12;;;;;;;;;;;;;;;;;;339167;156;855840;-59
2022/06/04 02:28:13;;;;;;;;;;;;;;;;;;342281;156;855954;-58
2022/06/04 02:29:15;;;;;;;;;;;;;;;;;;340212;156;855893;-58
2022/06/04 02:30:16;;;;;;;;;;;;;;;;;;340080;157;856464;-58
2022/06/04 02:31:17;;;;;;;;;;;;;;;;;;339700;156;855923;-58
2022/06/04 02:32:19;;;;;;;;;;;;;;;;;;338049;157;856497;-58
2022/06/04 02:33:20;;;;;;;;;;;;;;;;;;339804;156;856212;-59
2022/06/04 02:34:21;;;;;;;;;;;;;;;;;;338330;157;855953;-58
2022/06/04 02:35:22;;;;;;;;;;;;;;;;;;337904;157;856245;-58
2022/06/04 02:36:24;;;;;;;;;;;;;;;;;;338244;156;855718;-58
2022/06/04 02:37:25;;;;;;;;;;;;;;;;;;340360;156;856943;-58
2022/06/04 02:38:26;;;;;;;;;;;;;;;;;;341236;157;855794;-58
2022/06/04 02:39:29;;;;;;;;;;;;;;;;;;341447;156;856949;-58
2022/06/04 02:40:30;;;;;;;;;;;;;;;;;;342777;156;855838;-58
2022/06/04 02:41:31;;;;;;;;;;;;;;;;;;337856;156;857679;-57
2022/06/04 02:42:33;;;;;;;;;;;;;;;;;;341046;156;856263;-58
2022/06/04 02:43:34;;;;;;;;;;;;;;;;;;339605;157;855823;-58
2022/06/04 02:44:35;;;;;;;;;;;;;;;;;;339091;156;856525;-58
2022/06/04 02:45:37;;;;;;;;;;;;;;;;;;338705;157;856707;-58
2022/06/04 02:46:40;;;;;;;;;;;;;;;;;;340122;156;855875;-57
2022/06/04 02:47:41;;;;;;;;;;;;;;;;;;341425;156;857059;-58
2022/06/04 02:48:43;;;;;;;;;;;;;;;;;;340130;157;856675;-58
2022/06/04 02:49:44;;;;;;;;;;;;;;;;;;341220;156;855955;-58
2022/06/04 02:50:45;;;;;;;;;;;;;;;;;;339969;157;856529;-57
2022/06/04 02:51:46;;;;;;;;;;;;;;;;;;339616;156;856527;-57
2022/06/04 02:52:48;;;;;;;;;;;;;;;;;;338881;156;856049;-57
2022/06/04 02:53:49;;;;;;;;;;;;;;;;;;338679;156;855525;-58
2022/06/04 02:54:51;;;;;;;;;;;;;;;;;;338006;156;856397;-57
2022/06/04 02:55:52;;;;;;;;;;;;;;;;;;339799;157;855812;-57
2022/06/04 02:56:53;;;;;;;;;;;;;;;;;;338206;156;855769;-57
2022/06/04 02:57:55;;;;;;;;;;;;;;;;;;340517;156;854928;-58
2022/06/04 02:58:56;;;;;;;;;;;;;;;;;;340852;157;855026;-57
2022/06/04 02:59:57;;;;;;;;;;;;;;;;;;343282;156;855006;-58
2022/06/04 03:00:59;;;;;;;;;;;;;;;;;;340196;156;855585;-58
2022/06/04 03:02:00;;;;;;;;;;;;;;;;;;340945;157;854926;-58
2022/06/04 03:03:02;;;;;;;;;;;;;;;;;;340524;157;854980;-59
2022/06/04 03:04:03;;;;;;;;;;;;;;;;;;340796;157;854913;-58
2022/06/04 03:05:04;;;;;;;;;;;;;;;;;;342658;156;854978;-58
2022/06/04 03:06:05;;;;;;;;;;;;;;;;;;339867;156;854920;-58
2022/06/04 03:07:07;;;;;;;;;;;;;;;;;;338268;157;855104;-59
2022/06/04 03:08:08;;;;;;;;;;;;;;;;;;341728;156;858192;-58
2022/06/04 03:09:10;;;;;;;;;;;;;;;;;;340657;156;855888;-60
2022/06/04 03:10:11;;;;;;;;;;;;;;;;;;339747;157;856549;-58
2022/06/04 03:11:13;;;;;;;;;;;;;;;;;;340041;157;855866;-58
2022/06/04 03:12:14;;;;;;;;;;;;;;;;;;336082;157;856141;-58
2022/06/04 03:13:15;;;;;;;;;;;;;;;;;;340069;156;855808;-58
2022/06/04 03:14:17;;;;;;;;;;;;;;;;;;339823;157;856465;-58
2022/06/04 03:15:18;;;;;;;;;;;;;;;;;;341132;156;855878;-58
2022/06/04 03:16:19;;;;;;;;;;;;;;;;;;337751;157;857759;-58
2022/06/04 03:17:21;;;;;;;;;;;;;;;;;;340056;156;855895;-59
2022/06/04 03:19:43;;;;;;;;;;;;;;;;;;360100;149;856758;-59
2022/06/04 03:20:44;;;;;;;;;;;;;;;;;;359631;149;855891;-58
2022/06/04 03:21:46;;;;;;;;;;;;;;;;;;360581;149;855834;-57
2022/06/04 03:22:48;;;;;;;;;;;;;;;;;;360931;149;855928;-57
2022/06/04 03:23:49;;;;;;;;;;;;;;;;;;360228;147;856378;-58
2022/06/04 03:24:50;;;;;;;;;;;;;;;;;;363225;147;855826;-56
2022/06/04 03:25:52;;;;;;;;;;;;;;;;;;365624;147;855902;-57
2022/06/04 03:26:53;;;;;;;;;;;;;;;;;;362881;147;855048;-57
2022/06/04 03:27:54;;;;;;;;;;;;;;;;;;362539;147;855701;-57
2022/06/04 03:28:56;;;;;;;;;;;;;;;;;;363163;147;855700;-58
2022/06/04 03:29:57;;;;;;;;;;;;;;;;;;362538;147;855822;-57
2022/06/04 03:30:58;;;;;;;;;;;;;;;;;;362919;147;856143;-58
2022/06/04 03:32:00;;;;;;;;;;;;;;;;;;363390;147;856192;-58
2022/06/04 03:33:01;;;;;;;;;;;;;;;;;;364764;147;857616;-60
2022/06/04 03:34:02;;;;;;;;;;;;;;;;;;366713;147;856427;-57
2022/06/04 03:35:04;;;;;;;;;;;;;;;;;;364797;147;857727;-58
2022/06/04 03:36:05;;;;;;;;;;;;;;;;;;365748;147;855908;-59
2022/06/04 03:37:06;;;;;;;;;;;;;;;;;;363941;147;855947;-57
2022/06/04 03:38:08;;;;;;;;;;;;;;;;;;363766;147;855800;-58
2022/06/04 03:39:09;;;;;;;;;;;;;;;;;;364561;147;857340;-57
2022/06/04 03:40:10;;;;;;;;;;;;;;;;;;363708;147;855862;-57
2022/06/04 03:41:12;;;;;;;;;;;;;;;;;;365662;147;856821;-57
2022/06/04 03:42:13;;;;;;;;;;;;;;;;;;364034;147;856044;-58
2022/06/04 03:43:14;;;;;;;;;;;;;;;;;;363050;147;855977;-59
2022/06/04 03:44:16;;;;;;;;;;;;;;;;;;362541;147;855999;-59
2022/06/04 03:45:17;;;;;;;;;;;;;;;;;;362373;147;855922;-58
2022/06/04 03:46:19;;;;;;;;;;;;;;;;;;362332;147;855900;-58
2022/06/04 03:47:20;;;;;;;;;;;;;;;;;;362180;147;855988;-58
2022/06/04 03:48:22;;;;;;;;;;;;;;;;;;363184;147;855865;-57
2022/06/04 03:49:23;;;;;;;;;;;;;;;;;;365745;147;855907;-58
2022/06/04 03:50:29;;;;;;;;;;;;;;;;;;363676;147;856019;-57
2022/06/04 03:51:31;;;;;;;;;;;;;;;;;;362630;147;856354;-57
2022/06/04 03:52:32;;;;;;;;;;;;;;;;;;364176;147;855770;-58
2022/06/04 03:53:33;;;;;;;;;;;;;;;;;;363605;147;855747;-58
2022/06/04 03:54:55;;;;;;;;;;;;;;;;;;363219;147;855975;-57
2022/06/04 03:55:53;;;;;;;;;;;;;;;;;;365166;147;855868;-59
2022/06/04 03:57:37;;;;;;;;;;;;;;;;;;364377;147;857592;-59
2022/06/04 03:57:58;;;;;;;;;;;;;;;;;;361409;147;855939;-59
2022/06/04 03:58:59;;;;;;;;;;;;;;;;;;365731;147;855849;-58
2022/06/04 04:00:00;;;;;;;;;;;;;;;;;;364193;147;857872;-59
2022/06/04 04:01:01;;;;;;;;;;;;;;;;;;365111;147;855729;-59
2022/06/04 04:02:03;;;;;;;;;;;;;;;;;;366141;147;857724;-59
2022/06/04 04:03:04;;;;;;;;;;;;;;;;;;364115;147;855848;-59
2022/06/04 04:04:05;;;;;;;;;;;;;;;;;;363260;147;856587;-59
2022/06/04 04:05:07;;;;;;;;;;;;;;;;;;363150;147;855787;-57
2022/06/04 04:06:08;;;;;;;;;;;;;;;;;;363179;147;856403;-58
2022/06/04 04:07:10;;;;;;;;;;;;;;;;;;365380;147;855719;-59
2022/06/04 04:08:11;;;;;;;;;;;;;;;;;;363580;147;856250;-60
2022/06/04 04:09:13;;;;;;;;;;;;;;;;;;362905;147;855916;-58
2022/06/04 04:10:14;;;;;;;;;;;;;;;;;;362307;147;857639;-59
2022/06/04 04:11:16;;;;;;;;;;;;;;;;;;365682;147;855777;-60
2022/06/04 04:12:17;;;;;;;;;;;;;;;;;;363980;147;857694;-60
2022/06/04 04:13:18;;;;;;;;;;;;;;;;;;366588;147;855862;-57
2022/06/04 04:14:19;;;;;;;;;;;;;;;;;;364453;147;857578;-58
2022/06/04 04:15:21;;;;;;;;;;;;;;;;;;366173;147;856415;-58
2022/06/04 04:16:22;;;;;;;;;;;;;;;;;;364222;147;857068;-57
2022/06/04 04:17:23;;;;;;;;;;;;;;;;;;362955;147;856403;-58
2022/06/04 04:18:25;;;;;;;;;;;;;;;;;;363241;147;856433;-57
2022/06/04 04:19:28;;;;;;;;;;;;;;;;;;360617;147;855924;-59
2022/06/04 04:20:29;;;;;;;;;;;;;;;;;;358630;149;857344;-58
2022/06/04 04:21:31;;;;;;;;;;;;;;;;;;358162;149;855294;-59
2022/06/04 04:22:32;;;;;;;;;;;;;;;;;;361826;149;856370;-60
2022/06/04 04:23:34;;;;;;;;;;;;;;;;;;360898;149;854928;-60
2022/06/04 04:24:35;;;;;;;;;;;;;;;;;;357822;149;855831;-59
2022/06/04 04:25:37;;;;;;;;;;;;;;;;;;360552;149;855983;-57
2022/06/04 04:26:40;;;;;;;;;;;;;;;;;;358815;149;855882;-59
2022/06/04 04:27:42;;;;;;;;;;;;;;;;;;358396;149;855738;-59
2022/06/04 04:28:43;;;;;;;;;;;;;;;;;;359976;149;855958;-59
2022/06/04 04:29:45;;;;;;;;;;;;;;;;;;360232;149;855044;-59
2022/06/04 04:30:46;;;;;;;;;;;;;;;;;;361063;149;854984;-59
2022/06/04 04:31:48;;;;;;;;;;;;;;;;;;358298;149;854992;-59
2022/06/04 04:32:49;;;;;;;;;;;;;;;;;;359279;149;855018;-63
2022/06/04 04:33:51;;;;;;;;;;;;;;;;;;358470;149;854918;-59
2022/06/04 04:34:52;;;;;;;;;;;;;;;;;;358815;149;855124;-58
2022/06/04 04:35:53;;;;;;;;;;;;;;;;;;360277;149;855528;-59
2022/06/04 04:36:55;;;;;;;;;;;;;;;;;;360859;149;854955;-60
2022/06/04 04:37:56;;;;;;;;;;;;;;;;;;358286;149;854891;-60
2022/06/04 04:38:58;;;;;;;;;;;;;;;;;;359820;149;855354;-59
2022/06/04 04:39:59;;;;;;;;;;;;;;;;;;358026;149;855498;-59
2022/06/04 04:41:00;;;;;;;;;;;;;;;;;;360377;149;855742;-58
2022/06/04 04:42:02;;;;;;;;;;;;;;;;;;358601;149;855083;-60
2022/06/04 04:43:03;;;;;;;;;;;;;;;;;;361731;149;854846;-57
2022/06/04 04:44:05;;;;;;;;;;;;;;;;;;358674;149;854866;-58
2022/06/04 04:45:09;;;;;;;;;;;;;;;;;;358409;149;854889;-57
2022/06/04 04:46:10;;;;;;;;;;;;;;;;;;358976;149;855095;-57
2022/06/04 04:47:12;;;;;;;;;;;;;;;;;;357827;149;854981;-58
2022/06/04 04:48:13;;;;;;;;;;;;;;;;;;358896;149;855517;-60
2022/06/04 04:49:14;;;;;;;;;;;;;;;;;;362166;149;854968;-61
2022/06/04 04:50:16;;;;;;;;;;;;;;;;;;360813;149;854906;-59
2022/06/04 04:51:17;;;;;;;;;;;;;;;;;;363562;147;855154;-60
2022/06/04 04:52:19;;;;;;;;;;;;;;;;;;366093;145;855204;-61
2022/06/04 04:53:20;;;;;;;;;;;;;;;;;;365518;145;855639;-60
2022/06/04 04:54:21;;;;;;;;;;;;;;;;;;356729;149;855049;-60
2022/06/04 04:55:22;;;;;;;;;;;;;;;;;;357258;149;855217;-59
2022/06/04 04:56:24;;;;;;;;;;;;;;;;;;357323;149;855911;-60
2022/06/04 04:57:26;;;;;;;;;;;;;;;;;;358608;149;855792;-59
2022/06/04 04:58:27;;;;;;;;;;;;;;;;;;358894;149;855637;-59
2022/06/04 04:59:29;;;;;;;;;;;;;;;;;;358835;149;855899;-59
2022/06/04 05:00:30;;;;;;;;;;;;;;;;;;359440;149;855824;-58
2022/06/04 05:01:33;;;;;;;;;;;;;;;;;;361363;149;855640;-58
2022/06/04 05:02:34;;;;;;;;;;;;;;;;;;360249;149;855141;-60
2022/06/04 05:03:36;;;;;;;;;;;;;;;;;;360363;149;857371;-60
2022/06/04 05:04:37;;;;;;;;;;;;;;;;;;354059;150;857046;-61
2022/06/04 05:05:39;;;;;;;;;;;;;;;;;;360008;150;855770;-59
2022/06/04 05:06:40;;;;;;;;;;;;;;;;;;360096;150;856210;-58
2022/06/04 05:07:41;;;;;;;;;;;;;;;;;;358075;148;854892;-58
2022/06/04 05:08:43;;;;;;;;;;;;;;;;;;358729;148;855844;-60
2022/06/04 05:09:44;;;;;;;;;;;;;;;;;;354823;150;855936;-58
2022/06/04 05:10:46;;;;;;;;;;;;;;;;;;355254;150;855853;-58
2022/06/04 05:11:48;;;;;;;;;;;;;;;;;;349987;153;857250;-58
2022/06/04 05:12:49;;;;;;;;;;;;;;;;;;356811;152;855720;-60
2022/06/04 05:13:50;;;;;;;;;;;;;;;;;;356970;150;858712;-57
2022/06/04 05:14:52;;;;;;;;;;;;;;;;;;353271;150;856349;-59
2022/06/04 05:15:53;;;;;;;;;;;;;;;;;;352663;153;855883;-56
2022/06/04 05:16:55;;;;;;;;;;;;;;;;;;350028;150;857543;-58
2022/06/04 05:17:56;;;;;;;;;;;;;;;;;;358247;149;855839;-58
2022/06/04 05:18:57;;;;;;;;;;;;;;;;;;360935;149;855471;-60
2022/06/04 05:19:59;;;;;;;;;;;;;;;;;;359941;149;857340;-56
2022/06/04 05:21:00;;;;;;;;;;;;;;;;;;361548;149;855746;-56
2022/06/04 05:22:01;;;;;;;;;;;;;;;;;;361579;149;855915;-58
2022/06/04 05:23:03;;;;;;;;;;;;;;;;;;358105;147;855515;-57
2022/06/04 05:24:04;;;;;;;;;;;;;;;;;;358546;149;854936;-57
2022/06/04 05:25:06;;;;;;;;;;;;;;;;;;360070;149;855819;-58
2022/06/04 05:26:07;;;;;;;;;;;;;;;;;;358186;149;855746;-58
2022/06/04 05:27:09;;;;;;;;;;;;;;;;;;358206;149;855625;-59
2022/06/04 05:28:10;;;;;;;;;;;;;;;;;;360731;149;855880;-58
2022/06/04 05:29:11;;;;;;;;;;;;;;;;;;360680;149;857591;-58
2022/06/04 05:30:12;;;;;;;;;;;;;;;;;;359660;148;855848;-59
2022/06/04 05:31:14;;;;;;;;;;;;;;;;;;358303;149;856761;-59
2022/06/04 05:32:15;;;;;;;;;;;;;;;;;;352439;152;855884;-59
2022/06/04 05:33:17;;;;;;;;;;;;;;;;;;353205;149;855825;-59
2022/06/04 05:34:18;;;;;;;;;;;;;;;;;;357729;149;857681;-60
2022/06/04 05:35:20;;;;;;;;;;;;;;;;;;357952;149;855950;-60
2022/06/04 05:36:21;;;;;;;;;;;;;;;;;;361798;149;856519;-58
2022/06/04 05:37:22;;;;;;;;;;;;;;;;;;360930;149;855985;-58
2022/06/04 05:38:24;;;;;;;;;;;;;;;;;;359641;149;855249;-59
2022/06/04 05:39:26;;;;;;;;;;;;;;;;;;357994;149;855314;-58
2022/06/04 05:40:27;;;;;;;;;;;;;;;;;;358208;149;855041;-58
2022/06/04 05:41:29;;;;;;;;;;;;;;;;;;360204;149;854837;-56
2022/06/04 05:42:30;;;;;;;;;;;;;;;;;;363547;145;855036;-58
2022/06/04 05:43:31;;;;;;;;;;;;;;;;;;363673;147;854826;-58
2022/06/04 05:44:33;;;;;;;;;;;;;;;;;;364966;147;855089;-59
2022/06/04 05:45:34;;;;;;;;;;;;;;;;;;360753;147;855003;-57
2022/06/04 05:46:36;;;;;;;;;;;;;;;;;;355309;150;855135;-59
2022/06/04 05:47:37;;;;;;;;;;;;;;;;;;358867;149;855034;-59
2022/06/04 05:48:38;;;;;;;;;;;;;;;;;;359423;149;854913;-57
2022/06/04 05:49:40;;;;;;;;;;;;;;;;;;359612;149;854921;-57
2022/06/04 05:50:41;;;;;;;;;;;;;;;;;;359028;149;854920;-58
2022/06/04 05:51:42;;;;;;;;;;;;;;;;;;358371;149;855070;-59
2022/06/04 05:52:44;;;;;;;;;;;;;;;;;;358195;149;855093;-58
2022/06/04 05:53:45;;;;;;;;;;;;;;;;;;357415;149;855016;-59
2022/06/04 05:54:46;;;;;;;;;;;;;;;;;;357584;149;855047;-59
2022/06/04 05:55:48;;;;;;;;;;;;;;;;;;355775;150;854997;-59
2022/06/04 05:56:49;;;;;;;;;;;;;;;;;;353651;150;855484;-57
2022/06/04 05:57:50;;;;;;;;;;;;;;;;;;359655;149;855466;-58
2022/06/04 05:58:52;;;;;;;;;;;;;;;;;;359369;149;855528;-58
2022/06/04 05:59:53;;;;;;;;;;;;;;;;;;357789;149;855000;-57
2022/06/04 06:00:54;;;;;;;;;;;;;;;;;;358252;149;854935;-57
2022/06/04 06:01:56;;;;;;;;;;;;;;;;;;360832;149;854956;-59
2022/06/04 06:02:57;;;;;;;;;;;;;;;;;;358907;149;854876;-58
2022/06/04 06:03:59;;;;;;;;;;;;;;;;;;359007;149;855491;-60
2022/06/04 06:05:00;;;;;;;;;;;;;;;;;;358156;149;854925;-60
2022/06/04 06:06:02;;;;;;;;;;;;;;;;;;359887;149;854940;-60
2022/06/04 06:07:03;;;;;;;;;;;;;;;;;;361719;149;854841;-60
2022/06/04 06:08:04;;;;;;;;;;;;;;;;;;358506;149;855554;-59
2022/06/04 06:09:06;;;;;;;;;;;;;;;;;;360127;149;855867;-57
2022/06/04 06:10:07;;;;;;;;;;;;;;;;;;358923;149;855965;-59
2022/06/04 06:11:09;;;;;;;;;;;;;;;;;;358461;149;854907;-59
2022/06/04 06:12:10;;;;;;;;;;;;;;;;;;353131;150;855025;-59
2022/06/04 06:13:11;;;;;;;;;;;;;;;;;;353146;153;855025;-59
2022/06/04 06:14:13;;;;;;;;;;;;;;;;;;353377;153;855040;-58
2022/06/04 06:15:14;;;;;;;;;;;;;;;;;;358663;149;855034;-59
2022/06/04 06:16:15;;;;;;;;;;;;;;;;;;357801;149;855142;-59
2022/06/04 06:17:17;;;;;;;;;;;;;;;;;;361668;149;855002;-60
2022/06/04 06:18:18;;;;;;;;;;;;;;;;;;361470;149;855376;-59
2022/06/04 06:19:19;;;;;;;;;;;;;;;;;;358435;149;855115;-58
2022/06/04 06:20:21;;;;;;;;;;;;;;;;;;358682;149;855730;-58
2022/06/04 06:21:22;;;;;;;;;;;;;;;;;;360278;149;855187;-58
2022/06/04 06:22:24;;;;;;;;;;;;;;;;;;360821;149;855818;-58
2022/06/04 06:23:25;;;;;;;;;;;;;;;;;;360408;149;855020;-58
2022/06/04 06:24:26;;;;;;;;;;;;;;;;;;360253;149;855067;-58
2022/06/04 06:25:28;;;;;;;;;;;;;;;;;;360354;149;854905;-58
2022/06/04 06:26:29;;;;;;;;;;;;;;;;;;359774;149;855037;-58
2022/06/04 06:27:31;;;;;;;;;;;;;;;;;;357285;149;855768;-57
2022/06/04 06:28:32;;;;;;;;;;;;;;;;;;358864;149;856636;-58
2022/06/04 06:29:34;;;;;;;;;;;;;;;;;;359977;149;855878;-59
2022/06/04 06:30:35;;;;;;;;;;;;;;;;;;360100;149;856922;-58
2022/06/04 06:31:37;;;;;;;;;;;;;;;;;;359633;148;856362;-57
2022/06/04 06:32:40;;;;;;;;;;;;;;;;;;359767;149;855985;-59
2022/06/04 06:33:41;;;;;;;;;;;;;;;;;;360094;149;855755;-59
2022/06/04 06:34:42;;;;;;;;;;;;;;;;;;359567;148;855871;-59
2022/06/04 06:35:44;;;;;;;;;;;;;;;;;;359743;149;856160;-58
2022/06/04 06:36:45;;;;;;;;;;;;;;;;;;359304;149;855839;-59
2022/06/04 06:37:47;;;;;;;;;;;;;;;;;;360582;149;856550;-59
2022/06/04 06:38:48;;;;;;;;;;;;;;;;;;360283;149;855836;-58
2022/06/04 06:39:49;;;;;;;;;;;;;;;;;;360660;149;855871;-58
2022/06/04 06:40:51;;;;;;;;;;;;;;;;;;360533;149;854940;-58
2022/06/04 06:41:54;;;;;;;;;;;;;;;;;;357977;149;854951;-58
2022/06/04 06:42:55;;;;;;;;;;;;;;;;;;358736;149;855004;-60
2022/06/04 06:43:57;;;;;;;;;;;;;;;;;;360665;149;855834;-58
2022/06/04 06:44:58;;;;;;;;;;;;;;;;;;357576;149;857930;-58
2022/06/04 06:45:59;;;;;;;;;;;;;;;;;;357320;149;855765;-57
2022/06/04 06:47:01;;;;;;;;;;;;;;;;;;357339;149;857041;-58
2022/06/04 06:48:02;;;;;;;;;;;;;;;;;;357062;150;855744;-58
2022/06/04 06:49:03;;;;;;;;;;;;;;;;;;359960;149;856124;-60
2022/06/04 06:50:05;;;;;;;;;;;;;;;;;;360468;149;855948;-59
2022/06/04 06:51:06;;;;;;;;;;;;;;;;;;359355;149;855938;-58
2022/06/04 06:52:09;;;;;;;;;;;;;;;;;;355991;149;855843;-58
2022/06/04 06:53:11;;;;;;;;;;;;;;;;;;360435;149;857039;-58
2022/06/04 06:54:12;;;;;;;;;;;;;;;;;;360609;149;856790;-58
2022/06/04 06:55:13;;;;;;;;;;;;;;;;;;360625;149;855823;-59
2022/06/04 06:56:15;;;;;;;;;;;;;;;;;;360433;148;856055;-58
2022/06/04 06:57:16;;;;;;;;;;;;;;;;;;358251;149;855885;-60
2022/06/04 06:58:18;;;;;;;;;;;;;;;;;;359000;149;857982;-58
2022/06/04 06:59:24;;;;;;;;;;;;;;;;;;359704;149;855911;-59
2022/06/04 07:00:25;;;;;;;;;;;;;;;;;;360003;149;855842;-58
2022/06/04 07:01:28;;;;;;;;;;;;;;;;;;359799;148;857098;-58